Airfield :
LOGIN :

Register | Disclaimer

   EN    FR    IT 

 










Legend :    VFR   Marginal VFR   IFR   Intensive IFR   Very Intensive IFR
Visi :
Ceiling :
>= 8 km
>= 3000ft
5 to 8 km
1000 to 3000 ft
1500m to 5 km
500 to 1000 ft
800 to 1500m
200 to 500 ft
< 800m
< 200 ft
Symbols :   Thunderstorms  Fog  Heavy snow  Heavy precipitations  Wind > 20 kt
SIGMETs :     Misc.  Thunderstorms  Icing  Turbulence  Mountain Waves  Volcanic Ashes







- Airport Elevation : 3368 ft


LSGC - Les Eplatures

CURRENT METAR :
  • 231350Z 08007KT 030V170 CAVOK 12/03 Q1010

EXPIRED METARs :
  • 231320Z 06011KT 030V160 CAVOK 12/02 Q1010
  • 231250Z 06012KT CAVOK 12/01 Q1010
  • 231220Z 06013KT CAVOK 11/02 Q1011
  • 231150Z 05011KT CAVOK 11/03 Q1011
  • 231120Z 04011KT CAVOK 10/03 Q1011

TAF TAF LSGC
Valid from the 23 at 12:00 until the 23 at 21:00 UTC


231125Z 2312/2321 07007KT 9999 FEW025 BKN090
PROB30
TEMPO 2312/2318 SHRA SCT012 BKN030
No reported NOTAMs for that airfield.



MET'MAP, your aeronautical weather chart ! - Copyright ORBIFLY December 2007 - Disclaimer

ORBIFLY MET'MAP TEAM :

Programming & Development : Alexandra Zaïnal
Concept & Development : Baudouin d'Aumeries
Co-Development & Prog : Marc-Olivier Méhu
Technical & hardware support : Manuel Goepfert

Contact : metmap@orbifly.com




SOURCES & CREDITS :

   NOAA